createdAt,value
2022-11-16T00:00:49.955Z,20.48
2022-11-16T00:03:16.664Z,16.90
2022-11-16T00:05:43.395Z,22.65
2022-11-16T00:08:10.126Z,21.23
2022-11-16T00:10:38.349Z,16.50
2022-11-16T00:13:05.077Z,21.30
2022-11-16T00:15:31.814Z,17.70
2022-11-16T00:17:58.529Z,20.52
2022-11-16T00:20:25.263Z,19.50
2022-11-16T00:22:51.975Z,15.27
2022-11-16T00:25:18.705Z,20.33
2022-11-16T00:27:46.800Z,16.92
2022-11-16T00:30:14.089Z,16.65
2022-11-16T00:32:40.830Z,19.17
2022-11-16T00:35:08.727Z,18.98
2022-11-16T00:37:35.455Z,21.13
2022-11-16T00:40:02.174Z,18.42
2022-11-16T00:42:28.908Z,20.10
2022-11-16T00:44:57.004Z,14.00
2022-11-16T00:47:23.880Z,17.45
2022-11-16T00:49:50.613Z,19.38
2022-11-16T00:52:17.366Z,19.35
2022-11-16T00:54:44.075Z,14.80
2022-11-16T00:57:10.804Z,16.73
2022-11-16T00:59:37.537Z,18.48
2022-11-16T01:02:05.634Z,17.92
2022-11-16T01:04:32.382Z,21.65
2022-11-16T01:06:59.155Z,19.05
2022-11-16T01:09:26.078Z,19.48
2022-11-16T01:11:52.816Z,22.05
2022-11-16T01:14:19.653Z,20.38
2022-11-16T01:16:49.616Z,16.42
2022-11-16T01:19:17.740Z,20.73
2022-11-16T01:21:44.485Z,20.77
2022-11-16T01:24:11.205Z,21.58
2022-11-16T01:26:37.980Z,22.17
2022-11-16T01:29:04.833Z,19.52
2022-11-16T01:31:31.811Z,23.60
2022-11-16T01:33:58.526Z,20.30
2022-11-16T01:36:26.622Z,21.95
2022-11-16T01:38:53.403Z,22.83
2022-11-16T01:41:22.188Z,23.77
2022-11-16T01:43:55.105Z,25.20
2022-11-16T01:46:22.088Z,25.33
2022-11-16T01:48:51.575Z,25.30
2022-11-16T01:51:18.603Z,19.83
2022-11-16T01:53:46.684Z,21.33
2022-11-16T01:56:13.517Z,20.13
2022-11-16T01:58:41.174Z,22.98
2022-11-16T02:01:07.949Z,28.23
2022-11-16T02:03:37.597Z,27.45
2022-11-16T02:06:22.402Z,24.23
2022-11-16T02:09:03.955Z,23.23
2022-11-16T02:11:49.925Z,23.98
2022-11-16T02:14:28.063Z,23.33
2022-11-16T02:17:03.905Z,23.65
2022-11-16T02:19:58.452Z,25.08
2022-11-16T02:22:39.121Z,25.08
2022-11-16T02:25:12.472Z,26.20
2022-11-16T02:28:05.957Z,21.83
2022-11-16T02:30:36.489Z,22.98
2022-11-16T02:33:09.636Z,22.92
2022-11-16T02:35:41.782Z,19.42
2022-11-16T02:38:13.052Z,28.55
2022-11-16T02:40:44.059Z,22.95
2022-11-16T02:43:13.990Z,23.52
2022-11-16T02:45:47.444Z,20.45
2022-11-16T02:48:19.222Z,20.80
2022-11-16T02:50:46.643Z,21.40
2022-11-16T02:53:14.220Z,20.27
2022-11-16T02:55:41.260Z,21.23
2022-11-16T02:58:12.294Z,21.90
2022-11-16T03:00:45.860Z,21.92
2022-11-16T03:03:26.310Z,18.05
2022-11-16T03:05:57.190Z,18.55
2022-11-16T03:08:28.397Z,22.20
2022-11-16T03:10:59.395Z,25.70
2022-11-16T03:13:30.021Z,20.70
2022-11-16T03:15:57.811Z,19.75
2022-11-16T03:18:28.107Z,18.90
2022-11-16T03:21:05.377Z,18.23
2022-11-16T03:23:32.301Z,19.00
2022-11-16T03:26:04.595Z,21.20
2022-11-16T03:28:36.636Z,22.38
2022-11-16T03:31:11.120Z,18.00
2022-11-16T03:33:44.344Z,19.33
2022-11-16T03:36:15.789Z,17.67
2022-11-16T03:38:45.390Z,19.58
2022-11-16T03:41:14.710Z,21.40
2022-11-16T03:43:43.793Z,17.65
2022-11-16T03:46:10.748Z,19.13
2022-11-16T03:48:39.909Z,20.20
2022-11-16T03:51:08.987Z,22.50
2022-11-16T03:53:36.062Z,18.52
2022-11-16T03:56:03.052Z,20.58
2022-11-16T03:58:29.894Z,20.65
2022-11-16T04:00:56.790Z,18.88
2022-11-16T04:03:23.636Z,18.08
2022-11-16T04:05:51.947Z,18.10
2022-11-16T04:08:18.685Z,17.52
2022-11-16T04:10:45.530Z,17.50
2022-11-16T04:13:14.495Z,19.63
2022-11-16T04:15:41.245Z,21.05
2022-11-16T04:18:09.779Z,20.15
2022-11-16T04:20:36.774Z,20.55
2022-11-16T04:23:08.028Z,17.77
2022-11-16T04:25:37.339Z,18.00
2022-11-16T04:28:04.764Z,17.83
2022-11-16T04:30:31.561Z,20.90
2022-11-16T04:32:58.363Z,21.20
2022-11-16T04:35:25.246Z,14.90
2022-11-16T04:37:52.833Z,16.38
2022-11-16T04:40:22.670Z,16.80
2022-11-16T04:42:52.678Z,16.98
2022-11-16T04:45:19.857Z,16.90
2022-11-16T04:47:48.641Z,17.00
2022-11-16T04:50:15.528Z,13.73
2022-11-16T04:52:42.283Z,17.02
2022-11-16T04:55:10.010Z,18.38
2022-11-16T04:57:38.175Z,17.45
2022-11-16T05:00:06.891Z,17.00
2022-11-16T05:02:33.618Z,16.95
2022-11-16T05:05:00.386Z,14.88
2022-11-16T05:07:27.680Z,19.13
2022-11-16T05:09:54.649Z,18.05
2022-11-16T05:12:24.145Z,14.27
2022-11-16T05:14:52.950Z,15.60
2022-11-16T05:17:19.731Z,16.75
2022-11-16T05:19:46.508Z,16.35
2022-11-16T05:22:13.243Z,12.60
2022-11-16T05:24:40.015Z,14.80
2022-11-16T05:27:08.538Z,16.48
2022-11-16T05:29:35.634Z,14.43
2022-11-16T05:32:05.374Z,16.52
2022-11-16T05:34:32.365Z,14.85
2022-11-16T05:36:59.378Z,15.73
2022-11-16T05:39:26.807Z,14.00
2022-11-16T05:41:54.245Z,14.95
2022-11-16T05:44:21.007Z,16.33
2022-11-16T05:46:48.410Z,14.45
2022-11-16T05:49:16.618Z,14.63
2022-11-16T05:51:45.243Z,14.82
2022-11-16T05:54:13.221Z,13.80
2022-11-16T05:56:40.169Z,14.95
2022-11-16T05:59:09.186Z,15.32
2022-11-16T06:01:37.905Z,16.55
2022-11-16T06:04:04.832Z,13.48
2022-11-16T06:06:33.128Z,15.82
2022-11-16T06:08:59.861Z,15.70
2022-11-16T06:11:29.125Z,16.33
2022-11-16T06:13:59.671Z,17.45
2022-11-16T06:16:26.414Z,17.90
2022-11-16T06:18:53.172Z,18.20
2022-11-16T06:21:20.007Z,17.42
2022-11-16T06:23:48.133Z,17.77
2022-11-16T06:26:14.999Z,15.27
2022-11-16T06:28:41.892Z,17.05
2022-11-16T06:31:08.826Z,16.83
2022-11-16T06:33:35.753Z,15.13
2022-11-16T06:36:02.563Z,13.70
2022-11-16T06:38:29.389Z,14.25
2022-11-16T06:40:58.436Z,14.13
2022-11-16T06:43:26.236Z,19.13
2022-11-16T06:45:54.678Z,12.57
2022-11-16T06:48:22.144Z,13.82
2022-11-16T06:50:49.963Z,14.07
2022-11-16T06:53:17.320Z,16.60
2022-11-16T06:55:44.199Z,20.80
2022-11-16T06:58:12.342Z,13.00
2022-11-16T07:00:39.182Z,20.98
2022-11-16T07:03:05.965Z,17.00
2022-11-16T07:05:32.746Z,18.58
2022-11-16T07:07:59.769Z,16.55
2022-11-16T07:10:26.676Z,15.07
2022-11-16T07:12:53.468Z,18.98
2022-11-16T07:15:21.566Z,14.98
2022-11-16T07:17:48.368Z,19.35
2022-11-16T07:20:15.801Z,13.68
2022-11-16T07:22:42.537Z,16.00
2022-11-16T07:25:09.891Z,13.13
2022-11-16T07:27:36.651Z,12.45
2022-11-16T07:30:03.985Z,18.27
2022-11-16T07:32:32.058Z,12.15
2022-11-16T07:34:59.553Z,15.45
2022-11-16T07:37:26.727Z,15.35
2022-11-16T07:39:53.459Z,16.30
2022-11-16T07:42:20.203Z,15.35
2022-11-16T07:44:46.935Z,18.50
2022-11-16T07:47:13.777Z,15.57
2022-11-16T07:49:41.859Z,14.13
2022-11-16T07:52:09.130Z,14.50
2022-11-16T07:54:35.945Z,15.02
2022-11-16T07:57:03.111Z,18.73
2022-11-16T07:59:29.905Z,16.98
2022-11-16T08:01:56.728Z,17.02
2022-11-16T08:04:23.643Z,13.48
2022-11-16T08:06:51.843Z,16.40
2022-11-16T08:09:18.799Z,17.80
2022-11-16T08:11:45.526Z,22.65
2022-11-16T08:14:12.431Z,21.88
2022-11-16T08:16:39.179Z,17.55
2022-11-16T08:19:06.087Z,18.77
2022-11-16T08:21:32.835Z,19.23
2022-11-16T08:24:00.928Z,17.75
2022-11-16T08:26:27.917Z,16.08
2022-11-16T08:28:55.358Z,18.10
2022-11-16T08:31:24.195Z,18.05
2022-11-16T08:33:51.205Z,16.02
2022-11-16T08:36:18.682Z,14.93
2022-11-16T08:38:46.294Z,20.38
2022-11-16T08:41:15.041Z,19.65
2022-11-16T08:43:41.989Z,13.10
2022-11-16T08:46:09.630Z,18.42
2022-11-16T08:48:37.435Z,15.65
2022-11-16T08:51:20.727Z,23.00
2022-11-16T08:53:48.672Z,16.92
2022-11-16T08:56:17.998Z,14.43
2022-11-16T08:58:44.753Z,13.85
2022-11-16T09:01:13.256Z,16.08
2022-11-16T09:03:40.458Z,14.13
2022-11-16T09:06:08.864Z,13.88
2022-11-16T09:08:37.482Z,17.50
2022-11-16T09:11:04.652Z,11.68
2022-11-16T09:13:32.790Z,15.60
2022-11-16T09:16:00.430Z,10.45
2022-11-16T09:18:28.303Z,15.73
2022-11-16T09:20:55.686Z,16.02
2022-11-16T09:23:25.508Z,26.45
2022-11-16T09:25:52.661Z,13.52
2022-11-16T09:28:20.323Z,15.90
2022-11-16T09:30:50.881Z,17.13
2022-11-16T09:33:18.252Z,15.48
2022-11-16T09:35:45.185Z,11.02
2022-11-16T09:38:14.882Z,12.77
2022-11-16T09:40:47.588Z,12.60
2022-11-16T09:43:25.518Z,12.38
2022-11-16T09:46:02.023Z,10.68
2022-11-16T09:48:30.835Z,12.00
2022-11-16T09:51:01.016Z,19.30
2022-11-16T09:53:32.818Z,11.35
2022-11-16T09:56:03.022Z,11.95
2022-11-16T09:58:36.196Z,17.23
2022-11-16T10:01:13.667Z,15.65
2022-11-16T10:03:45.211Z,17.08
2022-11-16T10:06:20.548Z,9.32
2022-11-16T10:08:49.142Z,12.20
2022-11-16T10:11:33.780Z,10.10
2022-11-16T10:14:12.647Z,11.70
2022-11-16T10:16:49.601Z,9.73
2022-11-16T10:19:24.136Z,10.63
2022-11-16T10:21:59.001Z,6.30
2022-11-16T10:24:38.833Z,11.27
2022-11-16T10:27:25.246Z,7.97
2022-11-16T10:30:01.398Z,10.85
2022-11-16T10:32:32.418Z,9.35
2022-11-16T10:35:04.510Z,11.38
2022-11-16T10:37:34.182Z,12.80
2022-11-16T10:40:15.253Z,8.02
2022-11-16T10:42:42.049Z,8.30
2022-11-16T10:45:17.384Z,8.98
2022-11-16T10:47:49.815Z,8.20
2022-11-16T10:50:30.413Z,12.35
2022-11-16T10:52:57.170Z,10.35
2022-11-16T10:55:24.626Z,9.32
2022-11-16T10:57:55.975Z,9.63
2022-11-16T11:00:44.071Z,9.43
2022-11-16T11:03:12.535Z,9.23
2022-11-16T11:05:49.648Z,8.98
2022-11-16T11:08:26.865Z,8.82
2022-11-16T11:11:01.750Z,9.27
2022-11-16T11:13:29.043Z,9.65
2022-11-16T11:16:14.598Z,10.70
2022-11-16T11:18:42.736Z,7.45
2022-11-16T11:21:18.658Z,8.80
2022-11-16T11:23:48.757Z,7.45
2022-11-16T11:26:34.706Z,12.32
2022-11-16T11:29:15.464Z,6.55
2022-11-16T11:31:45.408Z,8.18
2022-11-16T11:34:20.068Z,10.35
2022-11-16T11:36:49.927Z,8.80
2022-11-16T11:39:31.503Z,9.02
2022-11-16T11:42:05.996Z,8.30
2022-11-16T11:44:41.801Z,7.20
2022-11-16T11:47:57.210Z,7.78
2022-11-16T11:50:19.876Z,8.13
2022-11-16T11:52:59.069Z,7.80
2022-11-16T11:55:26.027Z,10.10
2022-11-16T11:57:54.095Z,10.25
2022-11-16T12:00:21.357Z,11.43
2022-11-16T12:03:17.375Z,10.15
2022-11-16T12:06:02.254Z,8.82
2022-11-16T12:08:47.075Z,11.98
2022-11-16T12:11:22.857Z,10.05
2022-11-16T12:14:02.809Z,7.32
2022-11-16T12:16:37.913Z,8.77
2022-11-16T12:19:29.331Z,7.00
2022-11-16T12:22:07.499Z,5.60
2022-11-16T12:24:47.001Z,7.30
2022-11-16T12:27:22.263Z,7.57
2022-11-16T12:29:59.034Z,4.75
2022-11-16T12:32:47.954Z,5.70
2022-11-16T12:35:33.457Z,7.20
2022-11-16T12:38:21.775Z,6.43
2022-11-16T12:41:07.664Z,4.55
2022-11-16T12:43:42.278Z,6.15
2022-11-16T12:46:19.193Z,5.32
2022-11-16T12:49:13.009Z,6.60
2022-11-16T12:51:54.366Z,7.65
2022-11-16T12:54:57.966Z,6.28
2022-11-16T12:57:39.063Z,7.55
2022-11-16T13:00:09.065Z,5.75
2022-11-16T13:02:59.741Z,6.70
2022-11-16T13:05:43.724Z,6.82
2022-11-16T13:08:15.190Z,5.97
2022-11-16T13:10:46.849Z,5.70
2022-11-16T13:13:35.851Z,6.93
2022-11-16T13:16:06.639Z,7.97
2022-11-16T13:18:37.941Z,6.28
2022-11-16T13:21:10.767Z,6.15
2022-11-16T13:23:50.022Z,5.10
2022-11-16T13:26:26.163Z,5.15
2022-11-16T13:28:59.088Z,6.68
2022-11-16T13:31:34.537Z,5.63
2022-11-16T13:34:05.347Z,18.63
2022-11-16T13:36:45.756Z,12.63
2022-11-16T13:39:21.623Z,5.90
2022-11-16T13:42:04.547Z,4.20
2022-11-16T13:44:31.480Z,5.30
2022-11-16T13:47:01.558Z,5.20
2022-11-16T13:49:35.210Z,6.85
2022-11-16T13:52:22.064Z,5.60
2022-11-16T13:54:52.636Z,7.38
2022-11-16T13:57:24.865Z,4.65
2022-11-16T14:00:08.113Z,5.82
2022-11-16T14:02:36.433Z,3.55
2022-11-16T14:05:05.459Z,8.52
2022-11-16T14:07:42.811Z,4.68
2022-11-16T14:10:10.534Z,3.58
2022-11-16T14:12:56.503Z,5.97
2022-11-16T14:15:29.278Z,4.20
2022-11-16T14:17:59.781Z,4.78
2022-11-16T14:20:54.631Z,4.35
2022-11-16T14:23:34.713Z,6.38
2022-11-16T14:26:12.114Z,5.82
2022-11-16T14:29:04.377Z,5.43
2022-11-16T14:31:45.332Z,5.55
2022-11-16T14:34:17.021Z,3.60
2022-11-16T14:36:46.678Z,4.40
2022-11-16T14:39:29.110Z,3.75
2022-11-16T14:41:58.550Z,6.15
2022-11-16T14:44:30.367Z,4.10
2022-11-16T14:46:57.309Z,6.75
2022-11-16T14:49:25.852Z,8.80
2022-11-16T14:51:56.102Z,7.45
2022-11-16T14:54:29.324Z,6.15
2022-11-16T14:56:57.342Z,5.45
2022-11-16T14:59:24.336Z,8.38
2022-11-16T15:01:52.920Z,7.10
2022-11-16T15:04:21.536Z,27.02
2022-11-16T15:06:50.883Z,22.95
2022-11-16T15:09:22.393Z,15.70
2022-11-16T15:11:50.791Z,16.67
2022-11-16T15:14:19.951Z,16.40
2022-11-16T15:16:52.762Z,17.92
2022-11-16T15:19:20.053Z,22.70
2022-11-16T15:21:52.127Z,16.63
2022-11-16T15:24:30.348Z,17.52
2022-11-16T15:27:09.041Z,10.45
2022-11-16T15:29:36.057Z,12.65
2022-11-16T15:32:04.710Z,12.25
2022-11-16T15:34:31.485Z,11.23
2022-11-16T15:36:58.197Z,8.48
2022-11-16T15:39:30.787Z,9.50
2022-11-16T15:42:03.438Z,11.85
2022-11-16T15:44:31.444Z,10.07
2022-11-16T15:46:58.945Z,16.70
2022-11-16T15:49:29.736Z,12.68
2022-11-16T15:51:57.754Z,8.48
2022-11-16T15:54:27.081Z,9.73
2022-11-16T15:56:55.923Z,4.72
2022-11-16T15:59:26.853Z,6.00
2022-11-16T16:01:54.075Z,5.57
2022-11-16T16:04:21.556Z,6.50
2022-11-16T16:06:51.554Z,4.85
2022-11-16T16:09:25.198Z,3.60
2022-11-16T16:11:52.319Z,5.45
2022-11-16T16:14:24.396Z,7.03
2022-11-16T16:16:52.668Z,14.10
2022-11-16T16:19:33.521Z,14.23
2022-11-16T16:22:02.987Z,20.33
2022-11-16T16:24:42.430Z,20.10
2022-11-16T16:27:17.638Z,15.35
2022-11-16T16:29:45.410Z,18.92
2022-11-16T16:32:17.928Z,13.98
2022-11-16T16:34:44.668Z,18.45
2022-11-16T16:37:12.866Z,25.20
2022-11-16T16:39:39.745Z,17.70
2022-11-16T16:42:09.722Z,10.73
2022-11-16T16:44:36.439Z,6.40
2022-11-16T16:47:03.463Z,11.48
2022-11-16T16:49:30.199Z,6.82
2022-11-16T16:51:57.013Z,5.38
2022-11-16T16:54:25.314Z,5.28
2022-11-16T16:56:52.079Z,10.95
2022-11-16T16:59:18.811Z,15.07
2022-11-16T17:01:45.549Z,13.98
2022-11-16T17:04:12.310Z,16.35
2022-11-16T17:06:43.786Z,20.50
2022-11-16T17:11:41.248Z,24.73
2022-11-16T17:14:07.981Z,29.05
2022-11-16T17:16:34.990Z,22.05
2022-11-16T17:19:02.140Z,27.95
2022-11-16T17:21:28.995Z,26.92
2022-11-16T17:23:55.781Z,26.50
2022-11-16T17:26:22.923Z,19.88
2022-11-16T17:28:54.594Z,7.15
2022-11-16T17:31:21.331Z,5.40
2022-11-16T17:33:48.062Z,6.45
2022-11-16T17:36:15.031Z,9.65
2022-11-16T17:38:41.773Z,9.32
2022-11-16T17:41:11.084Z,11.20
2022-11-16T17:43:38.138Z,8.30
2022-11-16T17:46:08.432Z,9.07
2022-11-16T17:48:36.283Z,9.57
2022-11-16T17:51:03.344Z,8.93
2022-11-16T17:53:32.808Z,8.60
2022-11-16T17:55:59.813Z,9.77
2022-11-16T17:58:27.331Z,5.70
2022-11-16T18:00:54.100Z,12.50
2022-11-16T18:03:22.712Z,8.68
2022-11-16T18:05:49.770Z,7.22
2022-11-16T18:08:16.736Z,5.50
2022-11-16T18:10:43.491Z,5.25
2022-11-16T18:13:10.400Z,7.15
2022-11-16T18:15:42.165Z,12.95
2022-11-16T18:18:09.523Z,11.65
2022-11-16T18:20:37.807Z,9.80
2022-11-16T18:23:04.862Z,12.15
2022-11-16T18:25:34.218Z,10.95
2022-11-16T18:28:00.963Z,8.25
2022-11-16T18:30:27.706Z,7.32
2022-11-16T18:32:54.741Z,6.90
2022-11-16T18:35:21.469Z,9.27
2022-11-16T18:37:49.736Z,7.30
2022-11-16T18:40:16.493Z,6.15
2022-11-16T18:42:43.239Z,5.22
2022-11-16T18:45:10.294Z,9.20
2022-11-16T18:47:37.128Z,8.55
2022-11-16T18:50:04.513Z,6.43
2022-11-16T18:52:31.265Z,7.53
2022-11-16T18:54:59.334Z,6.18
2022-11-16T18:57:26.084Z,7.35
2022-11-16T18:59:52.826Z,9.10
2022-11-16T19:02:19.569Z,10.18
2022-11-16T19:04:46.296Z,14.75
2022-11-16T19:07:13.160Z,11.27
2022-11-16T19:09:39.949Z,7.35
2022-11-16T19:12:08.115Z,3.88
2022-11-16T19:14:34.874Z,4.93
2022-11-16T19:17:01.624Z,9.40
2022-11-16T19:19:28.413Z,8.55
2022-11-16T19:21:55.176Z,16.75
2022-11-16T19:24:21.893Z,14.35
2022-11-16T19:26:48.753Z,21.70
2022-11-16T19:29:16.834Z,20.35
2022-11-16T19:31:43.564Z,14.40
2022-11-16T19:34:11.795Z,12.68
2022-11-16T19:36:38.655Z,2.45
2022-11-16T19:39:05.976Z,3.42
2022-11-16T19:41:32.846Z,9.88
2022-11-16T19:44:00.604Z,7.80
2022-11-16T19:46:30.071Z,10.25
2022-11-16T19:48:57.102Z,7.68
2022-11-16T19:51:26.198Z,7.47
2022-11-16T19:53:53.301Z,5.78
2022-11-16T19:56:21.882Z,6.50
2022-11-16T19:58:49.150Z,5.32
2022-11-16T20:01:18.661Z,9.60
2022-11-16T20:03:48.377Z,10.50
2022-11-16T20:06:17.766Z,11.75
2022-11-16T20:08:47.800Z,7.10
2022-11-16T20:11:16.096Z,10.50
2022-11-16T20:13:43.125Z,8.30
2022-11-16T20:16:12.022Z,10.68
2022-11-16T20:18:39.568Z,8.15
2022-11-16T20:21:10.533Z,5.30
2022-11-16T20:23:37.508Z,3.80
2022-11-16T20:26:05.788Z,2.83
2022-11-16T20:28:34.710Z,4.38
2022-11-16T20:31:01.536Z,3.63
2022-11-16T20:33:28.255Z,4.13
2022-11-16T20:36:00.374Z,2.40
2022-11-16T20:38:28.442Z,5.75
2022-11-16T20:40:55.190Z,3.05
2022-11-16T20:43:21.916Z,3.55
2022-11-16T20:45:52.351Z,3.42
2022-11-16T20:48:19.091Z,4.47
2022-11-16T20:50:50.594Z,4.68
2022-11-16T20:53:17.338Z,8.57
2022-11-16T20:55:45.433Z,5.97
2022-11-16T20:58:12.194Z,10.15
2022-11-16T21:00:38.900Z,8.02
2022-11-16T21:03:05.645Z,8.32
2022-11-16T21:05:32.465Z,13.13
2022-11-16T21:07:59.219Z,7.32
2022-11-16T21:10:26.238Z,4.70
2022-11-16T21:12:54.334Z,2.95
2022-11-16T21:15:21.212Z,3.17
2022-11-16T21:17:47.930Z,2.80
2022-11-16T21:20:29.965Z,4.20
2022-11-16T21:22:56.699Z,4.85
2022-11-16T21:25:23.483Z,5.38
2022-11-16T21:27:50.223Z,4.13
2022-11-16T21:30:18.584Z,4.88
2022-11-16T21:32:45.329Z,4.80
2022-11-16T21:35:12.202Z,6.72
2022-11-16T21:37:38.926Z,3.70
2022-11-16T21:40:06.533Z,5.75
2022-11-16T21:42:33.281Z,6.80
2022-11-16T21:45:00.015Z,7.55
2022-11-16T21:47:28.109Z,8.73
2022-11-16T21:50:29.676Z,19.35
2022-11-16T21:52:41.546Z,10.75
2022-11-16T21:55:09.119Z,14.43
2022-11-16T21:57:35.839Z,12.18
2022-11-16T22:00:03.109Z,14.23
2022-11-16T22:02:31.191Z,7.25
2022-11-16T22:04:57.929Z,9.10
2022-11-16T22:07:24.759Z,10.30
2022-11-16T22:09:51.514Z,13.10
2022-11-16T22:12:18.238Z,12.80
2022-11-16T22:14:44.965Z,13.65
2022-11-16T22:17:11.679Z,12.90
2022-11-16T22:19:39.755Z,9.45
2022-11-16T22:22:06.491Z,13.07
2022-11-16T22:24:33.281Z,9.80
2022-11-16T22:27:00.038Z,11.43
2022-11-16T22:29:26.773Z,13.00
2022-11-16T22:31:53.498Z,10.35
2022-11-16T22:34:20.225Z,9.73
2022-11-16T22:36:48.301Z,9.02
2022-11-16T22:39:15.039Z,8.27
2022-11-16T22:41:41.756Z,8.15
2022-11-16T22:44:08.501Z,9.40
2022-11-16T22:46:35.213Z,12.13
2022-11-16T22:49:01.950Z,13.18
2022-11-16T22:51:30.062Z,9.98
2022-11-16T22:53:59.658Z,11.82
2022-11-16T22:56:27.661Z,9.18
2022-11-16T22:58:54.462Z,8.10
2022-11-16T23:01:21.427Z,9.57
2022-11-16T23:03:48.407Z,11.52
2022-11-16T23:06:15.811Z,7.95
2022-11-16T23:08:43.038Z,7.55
2022-11-16T23:11:13.338Z,9.60
2022-11-16T23:13:40.282Z,10.00
2022-11-16T23:16:07.593Z,11.93
2022-11-16T23:18:34.332Z,7.60
2022-11-16T23:21:01.069Z,12.10
2022-11-16T23:23:27.784Z,10.02
2022-11-16T23:25:54.540Z,7.55
2022-11-16T23:28:22.858Z,6.70
2022-11-16T23:30:49.606Z,8.13
2022-11-16T23:33:16.354Z,7.55
2022-11-16T23:35:43.118Z,7.60
2022-11-16T23:38:09.846Z,7.70
2022-11-16T23:40:38.578Z,6.70
2022-11-16T23:43:06.189Z,4.93
2022-11-16T23:45:34.286Z,7.82
2022-11-16T23:48:01.104Z,6.22
2022-11-16T23:50:28.095Z,5.13
2022-11-16T23:52:54.831Z,5.32
2022-11-16T23:55:21.665Z,7.22
2022-11-16T23:57:48.461Z,5.55
